Time;durP1;ratioP1;P1;durP2;ratioP2;P2;SDS_P1;SDS_P2;PMS_P1;PMS_P2;Temp;Humidity;BMP_temperature;BMP_pressure;BME280_temperature;BME280_humidity;BME280_pressure;Samples;Min_cycle;Max_cycle;Signal;HPM_P1;HPM_P2
2022/09/23 00:00:17;;;;;;;;;;;13.60;99.90;;;;;;5110662;28;19924;-60
2022/09/23 00:02:46;;;;;;;;;;;13.60;99.90;;;;;;5108887;27;20375;-61
2022/09/23 00:05:14;;;;;;;;;;;13.50;99.90;;;;;;5099747;28;19935;-59
2022/09/23 00:07:41;;;;;;;;;;;13.60;99.90;;;;;;5093273;28;19924;-58
2022/09/23 00:10:09;;;;;;;;;;;13.60;99.90;;;;;;5108847;28;19928;-59
2022/09/23 00:12:36;;;;;;;;;;;13.60;99.90;;;;;;5074706;28;19924;-58
2022/09/23 00:15:04;;;;;;;;;;;13.60;99.90;;;;;;5091936;28;19946;-59
2022/09/23 00:17:31;;;;;;;;;;;13.60;99.90;;;;;;5074418;28;19924;-59
2022/09/23 00:19:59;;;;;;;;;;;13.60;99.90;;;;;;5108481;27;19931;-59
2022/09/23 00:22:26;;;;;;;;;;;13.60;99.90;;;;;;5096663;28;20418;-59
2022/09/23 00:24:54;;;;;;;;;;;13.60;99.90;;;;;;5116362;27;19924;-58
2022/09/23 00:27:21;;;;;;;;;;;13.60;99.90;;;;;;5109300;28;19923;-60
2022/09/23 00:29:48;;;;;;;;;;;13.60;99.90;;;;;;5109420;28;19924;-58
2022/09/23 00:32:16;;;;;;;;;;;13.70;99.90;;;;;;5126655;27;20240;-57
2022/09/23 00:34:43;;;;;;;;;;;13.70;99.90;;;;;;5096568;28;20367;-58
2022/09/23 00:37:11;;;;;;;;;;;13.70;99.90;;;;;;5098909;28;20536;-60
2022/09/23 00:39:39;;;;;;;;;;;13.70;99.90;;;;;;5106901;28;19924;-59
2022/09/23 00:42:11;;;;;;;;;;;13.70;99.90;;;;;;5090170;28;19935;-57
2022/09/23 00:44:38;;;;;;;;;;;13.70;99.90;;;;;;5119242;27;19924;-59
2022/09/23 00:47:11;;;;;;;;;;;13.70;99.90;;;;;;5112784;27;19935;-59
2022/09/23 00:49:40;;;;;;;;;;;13.70;99.90;;;;;;5108888;27;19931;-59
2022/09/23 00:52:10;;;;;;;;;;;13.60;99.90;;;;;;5089909;28;19923;-60
2022/09/23 00:54:38;;;;;;;;;;;13.60;99.90;;;;;;5110633;27;20297;-60
2022/09/23 00:57:06;;;;;;;;;;;13.60;99.90;;;;;;5110067;28;19935;-60
2022/09/23 00:59:34;;;;;;;;;;;13.50;99.90;;;;;;5107243;28;20386;-59
2022/09/23 01:02:02;;;;;;;;;;;13.50;99.90;;;;;;5109734;27;20395;-60
2022/09/23 01:04:30;;;;;;;;;;;13.50;99.90;;;;;;5105275;28;19924;-60
2022/09/23 01:06:57;;;;;;;;;;;13.50;99.90;;;;;;5105660;28;19928;-59
2022/09/23 01:09:25;;;;;;;;;;;13.40;99.90;;;;;;5086576;28;19990;-59
2022/09/23 01:12:11;;;;;;;;;;;13.40;99.90;;;;;;5109302;28;19924;-59
2022/09/23 01:14:54;;;;;;;;;;;13.40;99.90;;;;;;5110208;27;19923;-60
2022/09/23 01:17:33;;;;;;;;;;;13.40;99.90;;;;;;5108857;28;20298;-59
2022/09/23 01:20:29;;;;;;;;;;;13.40;99.90;;;;;;5100425;28;19924;-57
2022/09/23 01:23:22;;;;;;;;;;;13.30;99.90;;;;;;5093696;28;20307;-59
2022/09/23 01:25:58;;;;;;;;;;;13.20;99.90;;;;;;5065766;28;19935;-58
2022/09/23 01:28:44;;;;;;;;;;;13.10;99.90;;;;;;5104773;28;19927;-57
2022/09/23 01:31:21;;;;;;;;;;;13.10;99.90;;;;;;5102491;28;20383;-58
2022/09/23 01:33:54;;;;;;;;;;;13.00;99.90;;;;;;5102677;28;19924;-57
2022/09/23 01:36:22;;;;;;;;;;;13.00;99.90;;;;;;5111746;28;19994;-60
2022/09/23 01:38:59;;;;;;;;;;;13.00;99.90;;;;;;5109810;28;19924;-58
2022/09/23 01:41:46;;;;;;;;;;;13.00;99.90;;;;;;5093476;28;19928;-59
2022/09/23 01:44:21;;;;;;;;;;;13.00;99.90;;;;;;5109125;28;20374;-57
2022/09/23 01:47:07;;;;;;;;;;;12.90;99.90;;;;;;5109279;28;19924;-60
2022/09/23 01:49:39;;;;;;;;;;;12.90;99.90;;;;;;5110933;28;20315;-59
2022/09/23 01:52:08;;;;;;;;;;;12.90;99.90;;;;;;5110004;28;19928;-58
2022/09/23 01:54:42;;;;;;;;;;;12.90;99.90;;;;;;5112261;28;19934;-57
2022/09/23 01:57:15;;;;;;;;;;;12.90;99.90;;;;;;5112259;28;19931;-60
2022/09/23 01:59:46;;;;;;;;;;;12.90;99.90;;;;;;5111842;28;19932;-58
2022/09/23 02:02:22;;;;;;;;;;;12.90;99.90;;;;;;5127810;28;19928;-61
2022/09/23 02:04:55;;;;;;;;;;;12.90;99.90;;;;;;5114763;28;19930;-60
2022/09/23 02:07:26;;;;;;;;;;;12.90;99.90;;;;;;5114595;28;19924;-59
2022/09/23 02:09:58;;;;;;;;;;;12.90;99.90;;;;;;5132546;28;19924;-60
2022/09/23 02:12:28;;;;;;;;;;;12.90;99.90;;;;;;5132964;28;19930;-58
2022/09/23 02:14:58;;;;;;;;;;;13.00;99.90;;;;;;5117607;28;19931;-60
2022/09/23 02:17:30;;;;;;;;;;;13.00;99.90;;;;;;5112256;28;19924;-58
2022/09/23 02:20:00;;;;;;;;;;;13.00;99.90;;;;;;5112348;28;19924;-58
2022/09/23 02:22:41;;;;;;;;;;;13.00;99.90;;;;;;5112356;28;19924;-59
2022/09/23 02:25:11;;;;;;;;;;;13.10;99.90;;;;;;5112220;28;19950;-60
2022/09/23 02:27:44;;;;;;;;;;;13.10;99.90;;;;;;5077470;28;19931;-60
2022/09/23 02:30:13;;;;;;;;;;;13.10;99.90;;;;;;5112383;28;19924;-59
2022/09/23 02:32:58;;;;;;;;;;;13.20;99.90;;;;;;5112051;28;19923;-59
2022/09/23 02:35:31;;;;;;;;;;;13.20;99.90;;;;;;5112282;28;19924;-57
2022/09/23 02:38:19;;;;;;;;;;;13.20;99.90;;;;;;5112123;28;19946;-58
2022/09/23 02:40:52;;;;;;;;;;;13.20;99.90;;;;;;5112273;28;19935;-58
2022/09/23 02:43:20;;;;;;;;;;;13.20;99.90;;;;;;5112196;28;19924;-59
2022/09/23 02:45:47;;;;;;;;;;;13.20;99.90;;;;;;5112061;28;20389;-57
2022/09/23 02:48:20;;;;;;;;;;;13.20;99.90;;;;;;5111464;28;20402;-57
2022/09/23 02:50:48;;;;;;;;;;;13.20;99.90;;;;;;5111913;28;20531;-57
2022/09/23 02:53:16;;;;;;;;;;;13.20;99.90;;;;;;5094110;28;19928;-57
2022/09/23 02:55:43;;;;;;;;;;;13.30;99.90;;;;;;5111934;28;19923;-57
2022/09/23 02:58:12;;;;;;;;;;;13.20;99.90;;;;;;5112076;28;19938;-57
2022/09/23 03:01:09;;;;;;;;;;;13.20;99.90;;;;;;5111894;28;19924;-58
2022/09/23 03:03:52;;;;;;;;;;;13.20;99.90;;;;;;5022570;28;19935;-58
2022/09/23 03:06:29;;;;;;;;;;;13.20;99.90;;;;;;5112635;28;19931;-57
2022/09/23 03:08:59;;;;;;;;;;;13.20;99.90;;;;;;5114533;28;20379;-58
2022/09/23 03:11:27;;;;;;;;;;;13.20;99.90;;;;;;5097716;28;19924;-58
2022/09/23 03:14:16;;;;;;;;;;;13.20;99.90;;;;;;5115594;28;19923;-58
2022/09/23 03:17:02;;;;;;;;;;;13.20;99.90;;;;;;5115424;28;19923;-59
2022/09/23 03:19:32;;;;;;;;;;;13.20;99.90;;;;;;5115215;28;19924;-58
2022/09/23 03:22:00;;;;;;;;;;;13.20;99.90;;;;;;5115382;28;20283;-58
2022/09/23 03:24:30;;;;;;;;;;;13.10;99.90;;;;;;5115417;28;19924;-57
2022/09/23 03:27:02;;;;;;;;;;;13.20;99.90;;;;;;5114374;28;21348;-58
2022/09/23 03:29:31;;;;;;;;;;;13.20;99.90;;;;;;5115028;28;19924;-58
2022/09/23 03:31:58;;;;;;;;;;;13.20;99.90;;;;;;5127442;27;20375;-60
2022/09/23 03:34:27;;;;;;;;;;;13.20;99.90;;;;;;5135778;27;19923;-57
2022/09/23 03:37:01;;;;;;;;;;;13.10;99.90;;;;;;5135495;27;19930;-57
2022/09/23 03:39:33;;;;;;;;;;;13.10;99.90;;;;;;5135351;27;19931;-58
2022/09/23 03:42:03;;;;;;;;;;;13.10;99.90;;;;;;5135578;27;20432;-60
2022/09/23 03:44:36;;;;;;;;;;;13.10;99.90;;;;;;5135435;27;20318;-58
2022/09/23 03:47:04;;;;;;;;;;;13.10;99.90;;;;;;5135361;27;19934;-59
2022/09/23 03:49:36;;;;;;;;;;;13.10;99.90;;;;;;5135284;27;19954;-59
2022/09/23 03:52:03;;;;;;;;;;;13.10;99.90;;;;;;5135182;27;19924;-59
2022/09/23 03:54:31;;;;;;;;;;;13.10;99.90;;;;;;5116888;27;19923;-59
2022/09/23 03:56:59;;;;;;;;;;;13.10;99.90;;;;;;5134024;27;19923;-58
2022/09/23 03:59:29;;;;;;;;;;;13.10;99.90;;;;;;5113085;28;19932;-58
2022/09/23 04:01:58;;;;;;;;;;;13.00;99.90;;;;;;5109235;27;19927;-58
2022/09/23 04:04:26;;;;;;;;;;;13.10;99.90;;;;;;5135179;27;20394;-59
2022/09/23 04:06:55;;;;;;;;;;;13.00;99.90;;;;;;5135448;27;19977;-59
2022/09/23 04:09:22;;;;;;;;;;;13.50;99.90;;;;;;5134985;27;19923;-58
2022/09/23 04:11:50;;;;;;;;;;;13.00;99.90;;;;;;5134993;27;20262;-57
2022/09/23 04:14:18;;;;;;;;;;;13.00;99.90;;;;;;5114934;27;19931;-58
2022/09/23 04:16:46;;;;;;;;;;;13.00;99.90;;;;;;5114275;28;19924;-59
2022/09/23 04:19:14;;;;;;;;;;;12.90;99.90;;;;;;5112419;28;20374;-58
2022/09/23 04:21:42;;;;;;;;;;;12.90;99.90;;;;;;5096040;28;19924;-58
2022/09/23 04:24:10;;;;;;;;;;;12.90;99.90;;;;;;5114169;28;19923;-57
2022/09/23 04:26:38;;;;;;;;;;;12.90;99.90;;;;;;5113913;28;19927;-61
2022/09/23 04:29:05;;;;;;;;;;;12.80;99.90;;;;;;5113938;28;19924;-57
2022/09/23 04:31:33;;;;;;;;;;;12.80;99.90;;;;;;5123618;27;19924;-57
2022/09/23 04:34:00;;;;;;;;;;;12.80;99.90;;;;;;5134538;27;19930;-57
2022/09/23 04:36:29;;;;;;;;;;;12.80;99.90;;;;;;5134482;27;19923;-60
2022/09/23 04:38:56;;;;;;;;;;;12.70;99.90;;;;;;5134249;27;19923;-60
2022/09/23 04:41:24;;;;;;;;;;;12.80;99.90;;;;;;5134445;27;19946;-60
2022/09/23 04:43:51;;;;;;;;;;;12.80;99.90;;;;;;5134216;27;19923;-58
2022/09/23 04:46:18;;;;;;;;;;;12.80;99.90;;;;;;5133453;27;20401;-60
2022/09/23 04:48:46;;;;;;;;;;;12.80;99.90;;;;;;5101952;27;19924;-58
2022/09/23 04:51:14;;;;;;;;;;;12.80;99.90;;;;;;5089759;28;19928;-58
2022/09/23 04:53:42;;;;;;;;;;;12.80;99.90;;;;;;5089422;28;20425;-57
2022/09/23 04:56:11;;;;;;;;;;;12.80;99.90;;;;;;5090155;28;19963;-58
2022/09/23 04:58:39;;;;;;;;;;;12.80;99.90;;;;;;5116744;27;19938;-58
2022/09/23 05:01:08;;;;;;;;;;;12.70;99.90;;;;;;5130450;27;19930;-59
2022/09/23 05:03:35;;;;;;;;;;;12.70;99.90;;;;;;5075773;28;19928;-59
2022/09/23 05:06:03;;;;;;;;;;;12.70;99.90;;;;;;5086406;28;19939;-60
2022/09/23 05:08:31;;;;;;;;;;;12.70;99.90;;;;;;5110978;27;19931;-59
2022/09/23 05:10:59;;;;;;;;;;;12.60;99.90;;;;;;5126798;27;19924;-60
2022/09/23 05:13:27;;;;;;;;;;;12.70;99.90;;;;;;5111769;27;19928;-60
2022/09/23 05:16:15;;;;;;;;;;;12.60;99.90;;;;;;5106468;28;19928;-57
2022/09/23 05:18:43;;;;;;;;;;;12.60;99.90;;;;;;5077342;28;20287;-57
2022/09/23 05:21:13;;;;;;;;;;;12.60;99.90;;;;;;5087413;28;19924;-57
2022/09/23 05:23:40;;;;;;;;;;;12.60;99.90;;;;;;5104586;27;19931;-57
2022/09/23 05:26:09;;;;;;;;;;;12.60;99.90;;;;;;5130290;27;19923;-57
2022/09/23 05:28:38;;;;;;;;;;;12.60;99.90;;;;;;5111818;27;19927;-57
2022/09/23 05:31:05;;;;;;;;;;;12.60;99.90;;;;;;5130526;27;19924;-57
2022/09/23 05:33:33;;;;;;;;;;;12.60;99.90;;;;;;5105397;27;19924;-59
2022/09/23 05:36:01;;;;;;;;;;;12.50;99.90;;;;;;5070900;28;20295;-60
2022/09/23 05:38:29;;;;;;;;;;;12.50;99.90;;;;;;5100635;28;20412;-58
2022/09/23 05:40:58;;;;;;;;;;;12.50;99.90;;;;;;5108452;28;19931;-57
2022/09/23 05:43:26;;;;;;;;;;;12.40;99.90;;;;;;5105697;28;19932;-58
2022/09/23 05:46:05;;;;;;;;;;;12.40;99.90;;;;;;5106445;28;19924;-60
2022/09/23 05:48:35;;;;;;;;;;;12.30;99.90;;;;;;5101905;27;20295;-58
2022/09/23 05:51:03;;;;;;;;;;;12.30;99.90;;;;;;5085589;28;19924;-57
2022/09/23 05:53:30;;;;;;;;;;;12.20;99.90;;;;;;5103321;28;19932;-57
2022/09/23 05:55:58;;;;;;;;;;;12.20;99.90;;;;;;5090656;28;19935;-58
2022/09/23 05:58:26;;;;;;;;;;;12.20;99.90;;;;;;5108767;28;19923;-57
2022/09/23 06:00:55;;;;;;;;;;;12.20;99.90;;;;;;5111298;28;19931;-57
2022/09/23 06:03:23;;;;;;;;;;;12.20;99.90;;;;;;5109898;27;20374;-58
2022/09/23 06:05:51;;;;;;;;;;;12.10;99.90;;;;;;5105650;28;20398;-59
2022/09/23 06:08:20;;;;;;;;;;;12.10;99.90;;;;;;5105701;28;20381;-60
2022/09/23 06:10:47;;;;;;;;;;;12.10;99.90;;;;;;5107083;28;19928;-60
2022/09/23 06:13:20;;;;;;;;;;;12.10;99.90;;;;;;5108900;28;19939;-59
2022/09/23 06:15:48;;;;;;;;;;;12.10;99.90;;;;;;5090633;28;19928;-58
2022/09/23 06:18:16;;;;;;;;;;;12.10;99.90;;;;;;5091731;28;20318;-58
2022/09/23 06:20:43;;;;;;;;;;;12.20;99.90;;;;;;5088565;28;19928;-59
2022/09/23 06:23:11;;;;;;;;;;;12.20;99.90;;;;;;5100637;28;19924;-60
2022/09/23 06:25:38;;;;;;;;;;;12.60;99.90;;;;;;5108859;28;19935;-58
2022/09/23 06:28:09;;;;;;;;;;;12.10;99.90;;;;;;5117141;28;19944;-59
2022/09/23 06:30:38;;;;;;;;;;;12.10;99.90;;;;;;5111020;28;19923;-58
2022/09/23 06:33:06;;;;;;;;;;;12.10;99.90;;;;;;5097146;28;19927;-59
2022/09/23 06:35:34;;;;;;;;;;;12.00;99.90;;;;;;5070568;28;19928;-59
2022/09/23 06:38:03;;;;;;;;;;;11.90;99.90;;;;;;5104156;28;19923;-57
2022/09/23 06:40:30;;;;;;;;;;;11.80;99.90;;;;;;5093767;28;20427;-57
2022/09/23 06:42:59;;;;;;;;;;;11.80;99.90;;;;;;5091034;28;19943;-59
2022/09/23 06:45:26;;;;;;;;;;;11.70;99.90;;;;;;5112005;28;19924;-61
2022/09/23 06:47:55;;;;;;;;;;;11.70;99.90;;;;;;5081990;28;19924;-60
2022/09/23 06:50:24;;;;;;;;;;;11.60;99.90;;;;;;5098848;28;19924;-60
2022/09/23 06:52:55;;;;;;;;;;;11.50;99.90;;;;;;5109803;28;19950;-59
2022/09/23 06:55:23;;;;;;;;;;;11.50;99.90;;;;;;5109961;28;19924;-60
2022/09/23 06:57:50;;;;;;;;;;;11.40;99.90;;;;;;5090270;28;19930;-60
2022/09/23 07:00:18;;;;;;;;;;;11.30;99.90;;;;;;5110074;28;19924;-60
2022/09/23 07:02:46;;;;;;;;;;;11.30;99.90;;;;;;5092976;28;19927;-60
2022/09/23 07:05:16;;;;;;;;;;;11.30;99.90;;;;;;5100875;27;20294;-59
2022/09/23 07:07:43;;;;;;;;;;;11.30;99.90;;;;;;5111109;27;19924;-60
2022/09/23 07:10:11;;;;;;;;;;;11.30;99.90;;;;;;5093511;27;19939;-58
2022/09/23 07:12:39;;;;;;;;;;;11.30;99.90;;;;;;5083529;28;19931;-59
2022/09/23 07:15:07;;;;;;;;;;;11.30;99.90;;;;;;5080881;28;19927;-58
2022/09/23 07:17:34;;;;;;;;;;;11.30;99.90;;;;;;5084357;27;19932;-57
2022/09/23 07:20:02;;;;;;;;;;;11.30;99.90;;;;;;5099081;28;19958;-58
2022/09/23 07:22:29;;;;;;;;;;;11.30;99.90;;;;;;5104696;28;19932;-58
2022/09/23 07:24:57;;;;;;;;;;;11.30;99.90;;;;;;5107616;28;19927;-57
2022/09/23 07:27:25;;;;;;;;;;;11.40;99.90;;;;;;5105397;28;19955;-58
2022/09/23 07:29:53;;;;;;;;;;;11.40;99.90;;;;;;5099792;28;19924;-58
2022/09/23 07:32:21;;;;;;;;;;;11.40;99.90;;;;;;5113436;27;20281;-59
2022/09/23 07:34:50;;;;;;;;;;;11.50;99.90;;;;;;5090369;28;19928;-60
2022/09/23 07:37:17;;;;;;;;;;;11.50;99.90;;;;;;5093530;27;19931;-60
2022/09/23 07:39:44;;;;;;;;;;;11.60;99.90;;;;;;5132473;27;19928;-57
2022/09/23 07:42:13;;;;;;;;;;;11.60;99.90;;;;;;5128372;27;19931;-58
2022/09/23 07:44:45;;;;;;;;;;;11.60;99.90;;;;;;5110937;28;19930;-59
2022/09/23 07:47:13;;;;;;;;;;;11.60;99.90;;;;;;5076147;28;19930;-60
2022/09/23 07:49:40;;;;;;;;;;;11.70;99.90;;;;;;5109124;28;19935;-59
2022/09/23 07:52:08;;;;;;;;;;;11.70;99.90;;;;;;5092998;28;19924;-58
2022/09/23 07:54:36;;;;;;;;;;;11.70;99.90;;;;;;5111408;28;19931;-57
2022/09/23 07:57:03;;;;;;;;;;;11.80;99.90;;;;;;5111704;28;20366;-58
2022/09/23 07:59:31;;;;;;;;;;;11.80;99.90;;;;;;5113396;27;20488;-58
2022/09/23 08:01:58;;;;;;;;;;;11.90;99.90;;;;;;5130057;27;19934;-59
2022/09/23 08:04:30;;;;;;;;;;;11.90;99.90;;;;;;5111328;28;19924;-58
2022/09/23 08:06:59;;;;;;;;;;;11.90;99.90;;;;;;5110786;28;19924;-59
2022/09/23 08:09:30;;;;;;;;;;;12.00;99.90;;;;;;5130370;27;19934;-60
2022/09/23 08:11:58;;;;;;;;;;;12.10;99.90;;;;;;5128948;27;20252;-58
2022/09/23 08:14:26;;;;;;;;;;;12.20;99.90;;;;;;5110924;28;19931;-58
2022/09/23 08:16:53;;;;;;;;;;;12.30;99.90;;;;;;5110684;28;19924;-57
2022/09/23 08:19:21;;;;;;;;;;;12.30;99.90;;;;;;5099123;28;19931;-57
2022/09/23 08:21:48;;;;;;;;;;;12.40;99.90;;;;;;5071866;28;19924;-59
2022/09/23 08:24:17;;;;;;;;;;;12.50;99.90;;;;;;5111088;28;19943;-57
2022/09/23 08:26:44;;;;;;;;;;;12.50;99.90;;;;;;5109525;28;20428;-58
2022/09/23 08:29:13;;;;;;;;;;;12.60;99.90;;;;;;5109000;28;19931;-57
2022/09/23 08:31:41;;;;;;;;;;;12.60;99.90;;;;;;5110720;28;19924;-57
2022/09/23 08:34:08;;;;;;;;;;;12.70;99.90;;;;;;5090616;28;19924;-58
2022/09/23 08:36:36;;;;;;;;;;;12.70;99.90;;;;;;5074240;28;19931;-57
2022/09/23 08:39:04;;;;;;;;;;;12.70;99.90;;;;;;5084584;28;19924;-61
2022/09/23 08:41:58;;;;;;;;;;;12.80;99.90;;;;;;5090207;28;20408;-60
2022/09/23 08:44:37;;;;;;;;;;;12.90;99.90;;;;;;5073791;28;20276;-61
2022/09/23 08:47:05;;;;;;;;;;;12.90;99.90;;;;;;5090025;28;20018;-60
2022/09/23 08:49:35;;;;;;;;;;;13.00;99.90;;;;;;5109000;28;19923;-60
2022/09/23 08:52:07;;;;;;;;;;;13.00;99.90;;;;;;5086730;28;20091;-59
2022/09/23 08:54:34;;;;;;;;;;;13.10;99.90;;;;;;5087181;28;19924;-57
2022/09/23 08:57:04;;;;;;;;;;;13.20;99.90;;;;;;5089799;28;19931;-58
2022/09/23 08:59:40;;;;;;;;;;;13.30;99.90;;;;;;5087436;28;19924;-59
2022/09/23 09:02:12;;;;;;;;;;;13.30;99.90;;;;;;5098160;28;20383;-60
2022/09/23 09:04:44;;;;;;;;;;;13.40;99.90;;;;;;5088134;28;19928;-60
2022/09/23 09:07:14;;;;;;;;;;;13.40;99.90;;;;;;5070314;28;20288;-60
2022/09/23 09:10:22;;;;;;;;;;;13.50;99.90;;;;;;5089264;28;20379;-60
2022/09/23 09:12:51;;;;;;;;;;;13.60;99.90;;;;;;5088150;28;20449;-60
2022/09/23 09:15:20;;;;;;;;;;;13.70;99.90;;;;;;5089451;28;19928;-60
2022/09/23 09:17:51;;;;;;;;;;;13.70;99.90;;;;;;5094638;28;19935;-59
2022/09/23 09:20:34;;;;;;;;;;;13.80;99.90;;;;;;5125200;27;19931;-57
2022/09/23 09:23:24;;;;;;;;;;;13.80;99.90;;;;;;5109550;28;19928;-58
2022/09/23 09:25:54;;;;;;;;;;;13.90;99.90;;;;;;5071624;28;20406;-60
2022/09/23 09:28:32;;;;;;;;;;;14.00;99.90;;;;;;5119348;27;19924;-60
2022/09/23 09:31:01;;;;;;;;;;;14.10;99.90;;;;;;5129848;27;20388;-59
2022/09/23 09:33:34;;;;;;;;;;;14.10;99.90;;;;;;5115846;27;19938;-60
2022/09/23 09:36:07;;;;;;;;;;;14.20;99.90;;;;;;5101679;28;19924;-60
2022/09/23 09:38:35;;;;;;;;;;;14.30;99.90;;;;;;5112413;27;20409;-59
2022/09/23 09:41:14;;;;;;;;;;;14.40;99.90;;;;;;5130003;27;20370;-59
2022/09/23 09:43:43;;;;;;;;;;;14.40;99.90;;;;;;5113951;27;20321;-59
2022/09/23 09:46:14;;;;;;;;;;;14.50;99.90;;;;;;5109249;28;19924;-59
2022/09/23 09:49:02;;;;;;;;;;;14.60;99.90;;;;;;5109186;28;19924;-59
2022/09/23 09:51:29;;;;;;;;;;;14.70;99.90;;;;;;5098620;28;19924;-60
2022/09/23 09:54:35;;;;;;;;;;;14.80;99.90;;;;;;5106476;28;19924;-60
2022/09/23 09:57:04;;;;;;;;;;;14.90;99.90;;;;;;5026270;28;19938;-59
2022/09/23 09:59:31;;;;;;;;;;;15.00;99.90;;;;;;5013873;28;19948;-59
2022/09/23 10:02:12;;;;;;;;;;;15.20;99.90;;;;;;5086873;27;19923;-58
2022/09/23 10:04:40;;;;;;;;;;;15.30;99.90;;;;;;5129707;27;19938;-61
2022/09/23 10:07:11;;;;;;;;;;;15.50;99.90;;;;;;5099624;27;19951;-59
2022/09/23 10:09:41;;;;;;;;;;;15.60;99.90;;;;;;5088940;28;19924;-58
2022/09/23 10:12:14;;;;;;;;;;;15.80;99.90;;;;;;5072868;28;19928;-59
2022/09/23 10:14:41;;;;;;;;;;;15.90;99.90;;;;;;5108912;28;19923;-58
2022/09/23 10:17:20;;;;;;;;;;;15.90;99.90;;;;;;5111491;28;19924;-58
2022/09/23 10:19:59;;;;;;;;;;;15.80;99.90;;;;;;5092892;28;19925;-58
2022/09/23 10:22:30;;;;;;;;;;;15.80;99.90;;;;;;5079483;28;19924;-58
2022/09/23 10:25:08;;;;;;;;;;;15.90;99.90;;;;;;5113252;28;19935;-59
2022/09/23 10:27:37;;;;;;;;;;;16.10;99.90;;;;;;5113168;28;19923;-58
2022/09/23 10:30:20;;;;;;;;;;;16.30;99.90;;;;;;5112963;28;19924;-58
2022/09/23 10:32:48;;;;;;;;;;;16.40;99.90;;;;;;5107089;28;19928;-57
2022/09/23 10:35:23;;;;;;;;;;;16.50;99.90;;;;;;5112922;28;20371;-58
2022/09/23 10:37:54;;;;;;;;;;;16.50;99.90;;;;;;5104148;27;20294;-58
2022/09/23 10:49:01;;;;;;;;;;;16.60;99.90;;;;;;5094229;28;20401;-59
2022/09/23 10:51:41;;;;;;;;;;;16.70;99.90;;;;;;5106381;28;19924;-60
2022/09/23 10:54:08;;;;;;;;;;;16.80;99.90;;;;;;5111305;28;20362;-60
2022/09/23 10:56:41;;;;;;;;;;;16.90;99.90;;;;;;5112581;28;19931;-59
2022/09/23 10:59:11;;;;;;;;;;;16.90;99.90;;;;;;5093984;28;20283;-59
2022/09/23 11:02:01;;;;;;;;;;;17.10;99.90;;;;;;5122562;27;20290;-60
2022/09/23 11:04:31;;;;;;;;;;;17.20;99.90;;;;;;5091972;28;19931;-61
2022/09/23 11:07:20;;;;;;;;;;;17.30;99.90;;;;;;5100672;28;20246;-60
2022/09/23 11:09:50;;;;;;;;;;;17.30;99.90;;;;;;5112203;28;19924;-60
2022/09/23 11:12:18;;;;;;;;;;;17.30;99.90;;;;;;5115542;27;19927;-59
2022/09/23 11:14:45;;;;;;;;;;;17.30;99.90;;;;;;5132106;27;19923;-59
2022/09/23 11:17:31;;;;;;;;;;;17.50;99.90;;;;;;5132856;27;19923;-60
2022/09/23 11:20:17;;;;;;;;;;;17.50;99.90;;;;;;5091484;28;19931;-59
2022/09/23 11:23:08;;;;;;;;;;;17.60;99.90;;;;;;5098807;28;19946;-60
2022/09/23 11:25:56;;;;;;;;;;;17.70;99.90;;;;;;5056922;28;19931;-59
2022/09/23 11:28:43;;;;;;;;;;;18.00;99.90;;;;;;5120990;27;20414;-59
2022/09/23 11:31:17;;;;;;;;;;;18.30;99.90;;;;;;5132175;27;19923;-59
2022/09/23 11:34:11;;;;;;;;;;;18.40;99.90;;;;;;5098222;28;19931;-59
2022/09/23 11:36:42;;;;;;;;;;;18.40;99.90;;;;;;5107050;28;19924;-60
2022/09/23 11:39:21;;;;;;;;;;;18.70;99.90;;;;;;5111530;28;19931;-59
2022/09/23 11:41:51;;;;;;;;;;;19.00;99.90;;;;;;5093598;28;19928;-60
2022/09/23 11:44:21;;;;;;;;;;;19.40;99.90;;;;;;5111389;28;19931;-60
2022/09/23 11:46:58;;;;;;;;;;;19.70;99.90;;;;;;5111592;28;19924;-59
2022/09/23 11:49:31;;;;;;;;;;;20.10;99.90;;;;;;5130073;27;19924;-60
2022/09/23 11:51:59;;;;;;;;;;;20.60;99.90;;;;;;5123646;27;19951;-60
2022/09/23 11:54:46;;;;;;;;;;;20.80;99.90;;;;;;5093521;28;19927;-60
2022/09/23 11:57:30;;;;;;;;;;;21.00;99.90;;;;;;5081648;28;19928;-63
2022/09/23 12:00:20;;;;;;;;;;;20.80;99.90;;;;;;5091176;28;19927;-60
2022/09/23 12:03:11;;;;;;;;;;;20.40;99.90;;;;;;5104845;28;19935;-60
2022/09/23 12:05:44;;;;;;;;;;;19.90;99.90;;;;;;5111588;28;19928;-61
2022/09/23 12:08:17;;;;;;;;;;;19.30;99.90;;;;;;5102604;28;19924;-60
2022/09/23 12:11:05;;;;;;;;;;;18.90;99.90;;;;;;5111128;28;20407;-60
2022/09/23 12:13:33;;;;;;;;;;;18.50;99.90;;;;;;5124547;27;19934;-58
2022/09/23 12:16:06;;;;;;;;;;;18.40;99.90;;;;;;5131579;27;19923;-59
2022/09/23 12:18:37;;;;;;;;;;;18.80;99.90;;;;;;5119126;27;19931;-59
2022/09/23 12:21:04;;;;;;;;;;;19.70;99.90;;;;;;5092477;28;19923;-60
2022/09/23 12:23:50;;;;;;;;;;;20.40;99.90;;;;;;5106405;28;19924;-61
2022/09/23 12:26:19;;;;;;;;;;;21.00;99.90;;;;;;5092786;28;19924;-61
2022/09/23 12:28:49;;;;;;;;;;;21.00;99.90;;;;;;5110469;28;20304;-63
2022/09/23 12:31:18;;;;;;;;;;;20.60;99.90;;;;;;5112829;27;19924;-59
2022/09/23 12:33:50;;;;;;;;;;;20.10;99.90;;;;;;5092323;28;19931;-59
2022/09/23 12:36:25;;;;;;;;;;;19.60;99.90;;;;;;5110997;28;20383;-59
2022/09/23 12:39:04;;;;;;;;;;;19.50;99.90;;;;;;5090172;28;19928;-59
2022/09/23 12:41:35;;;;;;;;;;;20.00;99.90;;;;;;5090331;28;19924;-59
2022/09/23 12:44:07;;;;;;;;;;;20.70;99.90;;;;;;5089475;28;19946;-59
2022/09/23 12:46:34;;;;;;;;;;;21.50;99.90;;;;;;5092479;28;19923;-59
2022/09/23 12:49:03;;;;;;;;;;;22.40;99.90;;;;;;5124967;27;20271;-59
2022/09/23 12:51:34;;;;;;;;;;;23.00;98.40;;;;;;5131067;27;20298;-59
2022/09/23 12:54:05;;;;;;;;;;;23.40;98.40;;;;;;5107829;28;19924;-59
2022/09/23 12:56:33;;;;;;;;;;;23.80;97.80;;;;;;5110179;28;19928;-58
2022/09/23 12:59:09;;;;;;;;;;;24.10;97.10;;;;;;5109756;28;20402;-60
2022/09/23 13:01:37;;;;;;;;;;;24.50;95.90;;;;;;5120133;27;19923;-59
2022/09/23 13:06:56;;;;;;;;;;;25.10;95.70;;;;;;5109394;28;19924;-59
2022/09/23 13:09:25;;;;;;;;;;;24.80;92.10;;;;;;5072424;28;19924;-59
2022/09/23 13:11:55;;;;;;;;;;;24.80;92.70;;;;;;5109866;28;19928;-60
2022/09/23 13:14:23;;;;;;;;;;;24.90;92.50;;;;;;5109783;28;20006;-59
2022/09/23 13:16:55;;;;;;;;;;;25.00;92.90;;;;;;5109846;28;19931;-60
2022/09/23 13:19:30;;;;;;;;;;;25.20;91.00;;;;;;5109316;28;20393;-59
2022/09/23 13:22:11;;;;;;;;;;;25.30;90.00;;;;;;5091695;28;19928;-60
2022/09/23 13:24:40;;;;;;;;;;;25.00;90.20;;;;;;5109629;28;19950;-59
2022/09/23 13:27:10;;;;;;;;;;;24.80;91.10;;;;;;5091684;28;20299;-59
2022/09/23 13:29:57;;;;;;;;;;;24.40;90.80;;;;;;5109278;28;19927;-59
2022/09/23 13:32:33;;;;;;;;;;;23.80;90.80;;;;;;5111760;27;19923;-59
2022/09/23 13:35:03;;;;;;;;;;;23.50;92.70;;;;;;5111176;27;20522;-59
2022/09/23 13:37:30;;;;;;;;;;;23.20;93.20;;;;;;5123359;27;19924;-60
2022/09/23 13:40:16;;;;;;;;;;;23.10;92.70;;;;;;5130133;27;19927;-59
2022/09/23 13:42:47;;;;;;;;;;;23.20;93.80;;;;;;5123500;27;20290;-59
2022/09/23 13:45:17;;;;;;;;;;;23.60;93.30;;;;;;5109187;28;19928;-59
2022/09/23 13:47:46;;;;;;;;;;;23.90;92.30;;;;;;5100597;28;19943;-60
2022/09/23 13:50:16;;;;;;;;;;;23.70;90.20;;;;;;5101685;28;19938;-59
2022/09/23 13:52:44;;;;;;;;;;;23.60;90.50;;;;;;5097422;27;19939;-59
2022/09/23 13:55:25;;;;;;;;;;;23.10;90.90;;;;;;5095547;28;19923;-60
2022/09/23 13:58:00;;;;;;;;;;;22.60;90.70;;;;;;5100472;28;19925;-59
2022/09/23 14:00:31;;;;;;;;;;;22.00;91.00;;;;;;5102811;28;19924;-60
2022/09/23 14:02:58;;;;;;;;;;;21.50;91.70;;;;;;5123128;27;19923;-60
2022/09/23 14:05:28;;;;;;;;;;;21.00;91.90;;;;;;5105786;28;19928;-60
2022/09/23 14:07:55;;;;;;;;;;;20.60;92.10;;;;;;5082921;28;19924;-59
2022/09/23 14:10:26;;;;;;;;;;;20.10;92.50;;;;;;5104514;28;19928;-59
2022/09/23 14:12:54;;;;;;;;;;;19.70;93.40;;;;;;5105064;28;20432;-59
2022/09/23 14:15:22;;;;;;;;;;;19.40;94.00;;;;;;5105218;28;20401;-59
2022/09/23 14:18:00;;;;;;;;;;;19.10;94.50;;;;;;5103889;28;20086;-59
2022/09/23 14:20:27;;;;;;;;;;;18.90;95.10;;;;;;5067340;28;19924;-58
2022/09/23 14:23:02;;;;;;;;;;;18.90;95.60;;;;;;5092613;28;19934;-59
2022/09/23 14:25:30;;;;;;;;;;;18.90;96.30;;;;;;5097283;28;19935;-59
2022/09/23 14:27:58;;;;;;;;;;;19.00;96.40;;;;;;5109014;28;19934;-60
2022/09/23 14:30:27;;;;;;;;;;;19.20;96.90;;;;;;5107953;28;19931;-59
2022/09/23 14:32:55;;;;;;;;;;;19.30;96.10;;;;;;5113452;28;19931;-59
2022/09/23 14:35:25;;;;;;;;;;;19.30;96.40;;;;;;5085737;28;19935;-60
2022/09/23 14:41:14;;;;;;;;;;;19.20;96.60;;;;;;5093818;28;20391;-59
2022/09/23 14:43:47;;;;;;;;;;;19.20;97.00;;;;;;5086931;28;19947;-59
2022/09/23 14:46:16;;;;;;;;;;;19.20;97.20;;;;;;5105391;28;19954;-60
2022/09/23 14:48:51;;;;;;;;;;;19.10;97.20;;;;;;5073146;28;20372;-60
2022/09/23 14:51:19;;;;;;;;;;;19.10;96.40;;;;;;5104751;28;20391;-59
2022/09/23 14:53:47;;;;;;;;;;;19.10;96.70;;;;;;5097626;28;19938;-59
2022/09/23 14:56:16;;;;;;;;;;;19.10;96.80;;;;;;5105236;28;19924;-60